Thompsonville, Connecticut
Current Conditions -  °F | °C
As of 4:02 AM on Monday 24 Nov 2014 (Local Time) from KBDL Reporting Station
Moderate Rain Moderate Rain  
Wind Chill: 39°   Ceiling: 700
Heat Index: 42°   Visibility: 3mi
Dew Point: 38°   Wind: 5mph
Humidity: 85%   Direction: 10°N
Pressure: 29.88"   Gusts: NA
Location:  41.9843°N, 72.5534°W
Report Text: KBDL 240902Z 01004KT 3SM RA BR BKN007 OVC010 06/03 A2988 RMK AO2 P0001 T00560033
Loading
Personal Weather Stations






























Interactive Weather Map New forecast layout! Learn more

10-Day Weather Forecast

Advertisements
Track Severe Weather on mobile